sensor_id;sensor_type;location;lat;lon;timestamp;P1;durP1;ratioP1;P2;durP2;ratioP2
11247;SDS011;5681;53.316;13.950;2022-09-17T00:01:57;2.42;;;1.08;;
11247;SDS011;5681;53.316;13.950;2022-09-17T00:04:24;3.08;;;1.27;;
11247;SDS011;5681;53.316;13.950;2022-09-17T00:06:51;2.55;;;1.17;;
11247;SDS011;5681;53.316;13.950;2022-09-17T00:09:18;4.65;;;1.17;;
11247;SDS011;5681;53.316;13.950;2022-09-17T00:11:44;3.70;;;1.42;;
11247;SDS011;5681;53.316;13.950;2022-09-17T00:14:15;3.58;;;1.40;;
11247;SDS011;5681;53.316;13.950;2022-09-17T00:16:43;2.03;;;1.17;;
11247;SDS011;5681;53.316;13.950;2022-09-17T00:19:11;2.83;;;1.33;;
11247;SDS011;5681;53.316;13.950;2022-09-17T00:21:39;2.22;;;1.33;;
11247;SDS011;5681;53.316;13.950;2022-09-17T00:24:08;1.88;;;1.13;;
11247;SDS011;5681;53.316;13.950;2022-09-17T00:26:36;2.00;;;1.80;;
11247;SDS011;5681;53.316;13.950;2022-09-17T00:29:03;1.90;;;1.80;;
11247;SDS011;5681;53.316;13.950;2022-09-17T00:31:30;2.83;;;1.98;;
11247;SDS011;5681;53.316;13.950;2022-09-17T00:33:57;2.40;;;1.80;;
11247;SDS011;5681;53.316;13.950;2022-09-17T00:36:24;2.03;;;1.90;;
11247;SDS011;5681;53.316;13.950;2022-09-17T00:38:50;2.85;;;2.10;;
11247;SDS011;5681;53.316;13.950;2022-09-17T00:41:20;2.15;;;1.63;;
11247;SDS011;5681;53.316;13.950;2022-09-17T00:43:47;1.90;;;1.50;;
11247;SDS011;5681;53.316;13.950;2022-09-17T00:46:19;2.70;;;1.45;;
11247;SDS011;5681;53.316;13.950;2022-09-17T00:48:50;1.83;;;1.67;;
11247;SDS011;5681;53.316;13.950;2022-09-17T00:51:17;3.10;;;1.73;;
11247;SDS011;5681;53.316;13.950;2022-09-17T00:53:46;4.10;;;1.90;;
11247;SDS011;5681;53.316;13.950;2022-09-17T00:56:13;3.25;;;2.08;;
11247;SDS011;5681;53.316;13.950;2022-09-17T00:58:46;2.97;;;2.13;;
11247;SDS011;5681;53.316;13.950;2022-09-17T01:01:12;4.55;;;2.08;;
11247;SDS011;5681;53.316;13.950;2022-09-17T01:03:39;4.30;;;2.15;;
11247;SDS011;5681;53.316;13.950;2022-09-17T01:06:08;2.92;;;1.70;;
11247;SDS011;5681;53.316;13.950;2022-09-17T01:08:42;3.15;;;2.38;;
11247;SDS011;5681;53.316;13.950;2022-09-17T01:11:22;3.88;;;2.47;;
11247;SDS011;5681;53.316;13.950;2022-09-17T01:14:00;3.70;;;2.20;;
11247;SDS011;5681;53.316;13.950;2022-09-17T01:16:33;2.63;;;2.42;;
11247;SDS011;5681;53.316;13.950;2022-09-17T01:19:07;2.22;;;2.00;;
11247;SDS011;5681;53.316;13.950;2022-09-17T01:21:46;4.10;;;2.55;;
11247;SDS011;5681;53.316;13.950;2022-09-17T01:24:29;4.10;;;2.70;;
11247;SDS011;5681;53.316;13.950;2022-09-17T01:27:23;3.53;;;2.92;;
11247;SDS011;5681;53.316;13.950;2022-09-17T01:30:03;3.90;;;3.30;;
11247;SDS011;5681;53.316;13.950;2022-09-17T01:32:41;4.35;;;3.58;;
11247;SDS011;5681;53.316;13.950;2022-09-17T01:35:12;5.88;;;3.65;;
11247;SDS011;5681;53.316;13.950;2022-09-17T01:37:52;5.97;;;3.85;;
11247;SDS011;5681;53.316;13.950;2022-09-17T01:40:25;6.32;;;4.10;;
11247;SDS011;5681;53.316;13.950;2022-09-17T01:42:57;5.13;;;3.63;;
11247;SDS011;5681;53.316;13.950;2022-09-17T01:45:39;6.63;;;4.00;;
11247;SDS011;5681;53.316;13.950;2022-09-17T01:48:09;6.13;;;4.03;;
11247;SDS011;5681;53.316;13.950;2022-09-17T01:50:43;5.38;;;3.92;;
11247;SDS011;5681;53.316;13.950;2022-09-17T01:53:13;5.28;;;3.53;;
11247;SDS011;5681;53.316;13.950;2022-09-17T01:55:40;7.10;;;3.95;;
11247;SDS011;5681;53.316;13.950;2022-09-17T01:58:10;8.23;;;4.18;;
11247;SDS011;5681;53.316;13.950;2022-09-17T02:00:41;7.35;;;4.13;;
11247;SDS011;5681;53.316;13.950;2022-09-17T02:03:11;7.85;;;4.18;;
11247;SDS011;5681;53.316;13.950;2022-09-17T02:05:41;8.77;;;4.30;;
11247;SDS011;5681;53.316;13.950;2022-09-17T02:08:11;7.40;;;4.43;;
11247;SDS011;5681;53.316;13.950;2022-09-17T02:10:41;9.55;;;4.57;;
11247;SDS011;5681;53.316;13.950;2022-09-17T02:13:11;6.95;;;4.45;;
11247;SDS011;5681;53.316;13.950;2022-09-17T02:15:44;11.32;;;5.32;;
11247;SDS011;5681;53.316;13.950;2022-09-17T02:18:21;9.00;;;4.80;;
11247;SDS011;5681;53.316;13.950;2022-09-17T02:20:53;7.93;;;5.32;;
11247;SDS011;5681;53.316;13.950;2022-09-17T02:23:24;9.32;;;5.10;;
11247;SDS011;5681;53.316;13.950;2022-09-17T02:25:56;7.00;;;4.90;;
11247;SDS011;5681;53.316;13.950;2022-09-17T02:28:24;9.65;;;4.93;;
11247;SDS011;5681;53.316;13.950;2022-09-17T02:30:55;9.65;;;5.10;;
11247;SDS011;5681;53.316;13.950;2022-09-17T02:33:22;9.38;;;4.57;;
11247;SDS011;5681;53.316;13.950;2022-09-17T02:35:48;5.65;;;4.57;;
11247;SDS011;5681;53.316;13.950;2022-09-17T02:38:20;9.65;;;4.78;;
11247;SDS011;5681;53.316;13.950;2022-09-17T02:40:48;11.63;;;4.78;;
11247;SDS011;5681;53.316;13.950;2022-09-17T02:43:20;9.27;;;5.00;;
11247;SDS011;5681;53.316;13.950;2022-09-17T02:45:54;10.90;;;4.63;;
11247;SDS011;5681;53.316;13.950;2022-09-17T02:48:33;10.70;;;5.22;;
11247;SDS011;5681;53.316;13.950;2022-09-17T02:51:10;8.88;;;4.18;;
11247;SDS011;5681;53.316;13.950;2022-09-17T02:53:44;8.50;;;4.35;;
11247;SDS011;5681;53.316;13.950;2022-09-17T02:56:16;10.70;;;4.05;;
11247;SDS011;5681;53.316;13.950;2022-09-17T02:58:45;8.35;;;4.60;;
11247;SDS011;5681;53.316;13.950;2022-09-17T03:01:15;9.98;;;4.35;;
11247;SDS011;5681;53.316;13.950;2022-09-17T03:03:44;9.57;;;3.70;;
11247;SDS011;5681;53.316;13.950;2022-09-17T03:06:11;8.45;;;4.05;;
11247;SDS011;5681;53.316;13.950;2022-09-17T03:08:39;8.82;;;4.07;;
11247;SDS011;5681;53.316;13.950;2022-09-17T03:11:06;7.85;;;3.50;;
11247;SDS011;5681;53.316;13.950;2022-09-17T03:13:34;7.88;;;3.30;;
11247;SDS011;5681;53.316;13.950;2022-09-17T03:16:00;8.25;;;3.30;;
11247;SDS011;5681;53.316;13.950;2022-09-17T03:18:28;7.43;;;3.08;;
11247;SDS011;5681;53.316;13.950;2022-09-17T03:20:54;8.18;;;3.00;;
11247;SDS011;5681;53.316;13.950;2022-09-17T03:23:21;9.20;;;2.90;;
11247;SDS011;5681;53.316;13.950;2022-09-17T03:25:47;5.40;;;2.47;;
11247;SDS011;5681;53.316;13.950;2022-09-17T03:28:14;6.07;;;2.50;;
11247;SDS011;5681;53.316;13.950;2022-09-17T03:30:41;7.18;;;2.47;;
11247;SDS011;5681;53.316;13.950;2022-09-17T03:33:08;9.60;;;2.83;;
11247;SDS011;5681;53.316;13.950;2022-09-17T03:35:36;6.65;;;3.17;;
11247;SDS011;5681;53.316;13.950;2022-09-17T03:38:02;6.70;;;2.80;;
11247;SDS011;5681;53.316;13.950;2022-09-17T03:40:29;12.82;;;3.10;;
11247;SDS011;5681;53.316;13.950;2022-09-17T03:42:55;8.25;;;2.90;;
11247;SDS011;5681;53.316;13.950;2022-09-17T03:45:22;7.07;;;3.03;;
11247;SDS011;5681;53.316;13.950;2022-09-17T03:47:48;11.02;;;3.30;;
11247;SDS011;5681;53.316;13.950;2022-09-17T03:50:14;10.02;;;3.55;;
11247;SDS011;5681;53.316;13.950;2022-09-17T03:52:42;8.95;;;3.20;;
11247;SDS011;5681;53.316;13.950;2022-09-17T03:55:09;11.10;;;3.28;;
11247;SDS011;5681;53.316;13.950;2022-09-17T03:57:36;14.07;;;3.83;;
11247;SDS011;5681;53.316;13.950;2022-09-17T04:00:02;13.63;;;3.50;;
11247;SDS011;5681;53.316;13.950;2022-09-17T04:02:30;12.10;;;3.30;;
11247;SDS011;5681;53.316;13.950;2022-09-17T04:04:56;13.95;;;3.67;;
11247;SDS011;5681;53.316;13.950;2022-09-17T04:07:22;14.55;;;3.55;;
11247;SDS011;5681;53.316;13.950;2022-09-17T04:09:50;11.48;;;3.22;;
11247;SDS011;5681;53.316;13.950;2022-09-17T04:12:16;9.32;;;3.30;;
11247;SDS011;5681;53.316;13.950;2022-09-17T04:14:42;7.05;;;3.08;;
11247;SDS011;5681;53.316;13.950;2022-09-17T04:17:09;8.68;;;3.33;;
11247;SDS011;5681;53.316;13.950;2022-09-17T04:19:36;12.95;;;4.00;;
11247;SDS011;5681;53.316;13.950;2022-09-17T04:22:02;12.15;;;3.05;;
11247;SDS011;5681;53.316;13.950;2022-09-17T04:24:29;9.18;;;3.45;;
11247;SDS011;5681;53.316;13.950;2022-09-17T04:26:56;13.45;;;3.38;;
11247;SDS011;5681;53.316;13.950;2022-09-17T04:29:23;9.98;;;3.28;;
11247;SDS011;5681;53.316;13.950;2022-09-17T04:31:49;12.05;;;3.53;;
11247;SDS011;5681;53.316;13.950;2022-09-17T04:34:16;13.00;;;3.55;;
11247;SDS011;5681;53.316;13.950;2022-09-17T04:36:42;13.43;;;3.45;;
11247;SDS011;5681;53.316;13.950;2022-09-17T04:39:08;13.75;;;3.50;;
11247;SDS011;5681;53.316;13.950;2022-09-17T04:41:35;15.38;;;3.67;;
11247;SDS011;5681;53.316;13.950;2022-09-17T04:44:03;9.77;;;3.45;;
11247;SDS011;5681;53.316;13.950;2022-09-17T04:46:29;10.30;;;3.20;;
11247;SDS011;5681;53.316;13.950;2022-09-17T04:48:55;9.18;;;3.00;;
11247;SDS011;5681;53.316;13.950;2022-09-17T04:51:21;10.32;;;3.17;;
11247;SDS011;5681;53.316;13.950;2022-09-17T04:53:48;9.60;;;3.50;;
11247;SDS011;5681;53.316;13.950;2022-09-17T04:56:14;12.82;;;3.45;;
11247;SDS011;5681;53.316;13.950;2022-09-17T04:58:40;12.23;;;3.20;;
11247;SDS011;5681;53.316;13.950;2022-09-17T05:01:08;10.40;;;3.33;;
11247;SDS011;5681;53.316;13.950;2022-09-17T05:03:34;11.88;;;3.22;;
11247;SDS011;5681;53.316;13.950;2022-09-17T05:06:01;12.45;;;3.25;;
11247;SDS011;5681;53.316;13.950;2022-09-17T05:08:27;15.88;;;3.92;;
11247;SDS011;5681;53.316;13.950;2022-09-17T05:10:53;13.68;;;3.53;;
11247;SDS011;5681;53.316;13.950;2022-09-17T05:13:20;13.50;;;3.20;;
11247;SDS011;5681;53.316;13.950;2022-09-17T05:15:47;11.65;;;3.28;;
11247;SDS011;5681;53.316;13.950;2022-09-17T05:18:14;12.15;;;3.25;;
11247;SDS011;5681;53.316;13.950;2022-09-17T05:20:41;13.05;;;3.63;;
11247;SDS011;5681;53.316;13.950;2022-09-17T05:23:07;12.50;;;3.25;;
11247;SDS011;5681;53.316;13.950;2022-09-17T05:25:34;9.13;;;3.28;;
11247;SDS011;5681;53.316;13.950;2022-09-17T05:28:00;6.13;;;2.92;;
11247;SDS011;5681;53.316;13.950;2022-09-17T05:30:27;15.95;;;3.75;;
11247;SDS011;5681;53.316;13.950;2022-09-17T05:32:57;13.90;;;3.20;;
11247;SDS011;5681;53.316;13.950;2022-09-17T05:35:26;11.13;;;3.35;;
11247;SDS011;5681;53.316;13.950;2022-09-17T05:37:55;15.35;;;3.33;;
11247;SDS011;5681;53.316;13.950;2022-09-17T05:40:22;9.10;;;3.15;;
11247;SDS011;5681;53.316;13.950;2022-09-17T05:42:48;15.00;;;3.50;;
11247;SDS011;5681;53.316;13.950;2022-09-17T05:45:15;9.32;;;2.90;;
11247;SDS011;5681;53.316;13.950;2022-09-17T05:47:41;13.07;;;3.70;;
11247;SDS011;5681;53.316;13.950;2022-09-17T05:50:08;9.25;;;3.17;;
11247;SDS011;5681;53.316;13.950;2022-09-17T05:52:35;10.23;;;3.03;;
11247;SDS011;5681;53.316;13.950;2022-09-17T05:55:02;12.20;;;3.13;;
11247;SDS011;5681;53.316;13.950;2022-09-17T05:57:29;10.27;;;3.28;;
11247;SDS011;5681;53.316;13.950;2022-09-17T05:59:55;9.90;;;2.97;;
11247;SDS011;5681;53.316;13.950;2022-09-17T06:02:21;12.55;;;3.63;;
11247;SDS011;5681;53.316;13.950;2022-09-17T06:04:47;10.98;;;3.13;;
11247;SDS011;5681;53.316;13.950;2022-09-17T06:07:14;14.80;;;3.00;;
11247;SDS011;5681;53.316;13.950;2022-09-17T06:09:42;11.32;;;2.85;;
11247;SDS011;5681;53.316;13.950;2022-09-17T06:12:08;10.98;;;3.03;;
11247;SDS011;5681;53.316;13.950;2022-09-17T06:14:34;10.70;;;2.85;;
11247;SDS011;5681;53.316;13.950;2022-09-17T06:17:01;8.70;;;2.78;;
11247;SDS011;5681;53.316;13.950;2022-09-17T06:19:27;13.85;;;2.75;;
11247;SDS011;5681;53.316;13.950;2022-09-17T06:21:53;9.13;;;2.70;;
11247;SDS011;5681;53.316;13.950;2022-09-17T06:24:20;8.68;;;2.45;;
11247;SDS011;5681;53.316;13.950;2022-09-17T06:26:47;14.63;;;2.70;;
11247;SDS011;5681;53.316;13.950;2022-09-17T06:29:14;10.85;;;2.80;;
11247;SDS011;5681;53.316;13.950;2022-09-17T06:31:40;10.10;;;2.53;;
11247;SDS011;5681;53.316;13.950;2022-09-17T06:34:08;12.02;;;2.90;;
11247;SDS011;5681;53.316;13.950;2022-09-17T06:36:34;14.35;;;2.55;;
11247;SDS011;5681;53.316;13.950;2022-09-17T06:39:01;7.68;;;2.80;;
11247;SDS011;5681;53.316;13.950;2022-09-17T06:41:27;9.55;;;2.30;;
11247;SDS011;5681;53.316;13.950;2022-09-17T06:43:55;11.15;;;2.60;;
11247;SDS011;5681;53.316;13.950;2022-09-17T06:46:22;8.05;;;2.70;;
11247;SDS011;5681;53.316;13.950;2022-09-17T06:48:48;9.85;;;2.33;;
11247;SDS011;5681;53.316;13.950;2022-09-17T06:51:14;8.65;;;2.40;;
11247;SDS011;5681;53.316;13.950;2022-09-17T06:53:40;10.75;;;2.42;;
11247;SDS011;5681;53.316;13.950;2022-09-17T06:56:07;9.50;;;2.42;;
11247;SDS011;5681;53.316;13.950;2022-09-17T06:58:34;12.95;;;3.10;;
11247;SDS011;5681;53.316;13.950;2022-09-17T07:01:03;12.70;;;2.60;;
11247;SDS011;5681;53.316;13.950;2022-09-17T07:03:30;13.75;;;2.72;;
11247;SDS011;5681;53.316;13.950;2022-09-17T07:05:56;12.15;;;2.85;;
11247;SDS011;5681;53.316;13.950;2022-09-17T07:08:23;15.18;;;3.22;;
11247;SDS011;5681;53.316;13.950;2022-09-17T07:10:50;14.75;;;3.42;;
11247;SDS011;5681;53.316;13.950;2022-09-17T07:13:20;11.63;;;2.83;;
11247;SDS011;5681;53.316;13.950;2022-09-17T07:15:50;16.77;;;3.75;;
11247;SDS011;5681;53.316;13.950;2022-09-17T07:18:19;12.88;;;3.03;;
11247;SDS011;5681;53.316;13.950;2022-09-17T07:20:50;15.05;;;3.70;;
11247;SDS011;5681;53.316;13.950;2022-09-17T07:23:17;11.65;;;3.35;;
11247;SDS011;5681;53.316;13.950;2022-09-17T07:25:44;16.70;;;3.20;;
11247;SDS011;5681;53.316;13.950;2022-09-17T07:28:16;14.23;;;3.15;;
11247;SDS011;5681;53.316;13.950;2022-09-17T07:30:42;14.50;;;3.38;;
11247;SDS011;5681;53.316;13.950;2022-09-17T07:33:09;12.50;;;2.97;;
11247;SDS011;5681;53.316;13.950;2022-09-17T07:35:36;13.30;;;3.22;;
11247;SDS011;5681;53.316;13.950;2022-09-17T07:38:03;15.98;;;3.40;;
11247;SDS011;5681;53.316;13.950;2022-09-17T07:40:29;17.83;;;3.38;;
11247;SDS011;5681;53.316;13.950;2022-09-17T07:42:55;19.75;;;3.80;;
11247;SDS011;5681;53.316;13.950;2022-09-17T07:45:23;21.17;;;3.63;;
11247;SDS011;5681;53.316;13.950;2022-09-17T07:47:49;15.65;;;3.85;;
11247;SDS011;5681;53.316;13.950;2022-09-17T07:50:16;15.68;;;3.65;;
11247;SDS011;5681;53.316;13.950;2022-09-17T07:52:45;14.98;;;3.55;;
11247;SDS011;5681;53.316;13.950;2022-09-17T07:55:12;14.48;;;3.60;;
11247;SDS011;5681;53.316;13.950;2022-09-17T07:57:38;14.63;;;3.42;;
11247;SDS011;5681;53.316;13.950;2022-09-17T08:00:05;16.52;;;3.45;;
11247;SDS011;5681;53.316;13.950;2022-09-17T08:02:33;16.83;;;4.00;;
11247;SDS011;5681;53.316;13.950;2022-09-17T08:04:59;14.85;;;3.80;;
11247;SDS011;5681;53.316;13.950;2022-09-17T08:07:25;17.17;;;3.38;;
11247;SDS011;5681;53.316;13.950;2022-09-17T08:09:53;15.00;;;3.45;;
11247;SDS011;5681;53.316;13.950;2022-09-17T08:12:19;14.93;;;3.42;;
11247;SDS011;5681;53.316;13.950;2022-09-17T08:14:46;20.88;;;4.10;;
11247;SDS011;5681;53.316;13.950;2022-09-17T08:17:13;14.15;;;3.95;;
11247;SDS011;5681;53.316;13.950;2022-09-17T08:19:39;17.13;;;3.78;;
11247;SDS011;5681;53.316;13.950;2022-09-17T08:22:06;15.82;;;3.78;;
11247;SDS011;5681;53.316;13.950;2022-09-17T08:24:33;18.13;;;4.10;;
11247;SDS011;5681;53.316;13.950;2022-09-17T08:27:00;17.58;;;3.38;;
11247;SDS011;5681;53.316;13.950;2022-09-17T08:29:27;14.88;;;4.13;;
11247;SDS011;5681;53.316;13.950;2022-09-17T08:31:53;11.10;;;3.05;;
11247;SDS011;5681;53.316;13.950;2022-09-17T08:34:19;15.13;;;3.22;;
11247;SDS011;5681;53.316;13.950;2022-09-17T08:36:46;15.80;;;3.63;;
11247;SDS011;5681;53.316;13.950;2022-09-17T08:39:12;17.20;;;3.80;;
11247;SDS011;5681;53.316;13.950;2022-09-17T08:41:41;11.30;;;2.97;;
11247;SDS011;5681;53.316;13.950;2022-09-17T08:44:20;10.63;;;2.95;;
11247;SDS011;5681;53.316;13.950;2022-09-17T08:46:49;8.27;;;2.58;;
11247;SDS011;5681;53.316;13.950;2022-09-17T08:49:19;12.13;;;2.95;;
11247;SDS011;5681;53.316;13.950;2022-09-17T08:51:54;11.13;;;2.95;;
11247;SDS011;5681;53.316;13.950;2022-09-17T08:54:26;12.95;;;3.28;;
11247;SDS011;5681;53.316;13.950;2022-09-17T08:57:00;12.02;;;2.90;;
11247;SDS011;5681;53.316;13.950;2022-09-17T08:59:35;14.32;;;3.08;;
11247;SDS011;5681;53.316;13.950;2022-09-17T09:02:09;13.02;;;2.70;;
11247;SDS011;5681;53.316;13.950;2022-09-17T09:04:57;12.05;;;2.90;;
11247;SDS011;5681;53.316;13.950;2022-09-17T09:07:26;13.63;;;3.08;;
11247;SDS011;5681;53.316;13.950;2022-09-17T09:09:57;11.45;;;3.17;;
11247;SDS011;5681;53.316;13.950;2022-09-17T09:12:32;10.02;;;2.55;;
11247;SDS011;5681;53.316;13.950;2022-09-17T09:15:02;11.18;;;2.95;;
11247;SDS011;5681;53.316;13.950;2022-09-17T09:17:31;9.98;;;2.40;;
11247;SDS011;5681;53.316;13.950;2022-09-17T09:20:10;14.57;;;2.97;;
11247;SDS011;5681;53.316;13.950;2022-09-17T09:22:43;11.65;;;2.80;;
11247;SDS011;5681;53.316;13.950;2022-09-17T09:25:18;10.57;;;2.85;;
11247;SDS011;5681;53.316;13.950;2022-09-17T09:27:50;11.00;;;2.83;;
11247;SDS011;5681;53.316;13.950;2022-09-17T09:30:26;21.08;;;3.70;;
11247;SDS011;5681;53.316;13.950;2022-09-17T09:32:56;14.82;;;3.55;;
11247;SDS011;5681;53.316;13.950;2022-09-17T09:35:25;15.70;;;3.33;;
11247;SDS011;5681;53.316;13.950;2022-09-17T09:37:54;16.67;;;3.78;;
11247;SDS011;5681;53.316;13.950;2022-09-17T09:40:25;18.92;;;4.00;;
11247;SDS011;5681;53.316;13.950;2022-09-17T09:42:59;11.63;;;2.95;;
11247;SDS011;5681;53.316;13.950;2022-09-17T09:45:32;15.15;;;3.10;;
11247;SDS011;5681;53.316;13.950;2022-09-17T09:48:04;16.05;;;3.80;;
11247;SDS011;5681;53.316;13.950;2022-09-17T09:50:33;13.70;;;3.22;;
11247;SDS011;5681;53.316;13.950;2022-09-17T09:53:06;17.25;;;3.28;;
11247;SDS011;5681;53.316;13.950;2022-09-17T09:55:41;13.45;;;3.42;;
11247;SDS011;5681;53.316;13.950;2022-09-17T09:58:19;13.52;;;3.08;;
11247;SDS011;5681;53.316;13.950;2022-09-17T10:00:50;18.92;;;3.60;;
11247;SDS011;5681;53.316;13.950;2022-09-17T10:03:17;12.45;;;3.00;;
11247;SDS011;5681;53.316;13.950;2022-09-17T10:05:51;14.32;;;3.75;;
11247;SDS011;5681;53.316;13.950;2022-09-17T10:08:18;17.17;;;3.67;;
11247;SDS011;5681;53.316;13.950;2022-09-17T10:10:54;18.80;;;4.10;;
11247;SDS011;5681;53.316;13.950;2022-09-17T10:13:22;18.60;;;4.90;;
11247;SDS011;5681;53.316;13.950;2022-09-17T10:15:49;17.60;;;4.25;;
11247;SDS011;5681;53.316;13.950;2022-09-17T10:18:17;23.65;;;4.13;;
11247;SDS011;5681;53.316;13.950;2022-09-17T10:20:51;21.95;;;4.53;;
11247;SDS011;5681;53.316;13.950;2022-09-17T10:23:20;17.70;;;4.00;;
11247;SDS011;5681;53.316;13.950;2022-09-17T10:25:47;22.40;;;4.35;;
11247;SDS011;5681;53.316;13.950;2022-09-17T10:28:22;20.52;;;4.55;;
11247;SDS011;5681;53.316;13.950;2022-09-17T10:30:56;20.48;;;4.03;;
11247;SDS011;5681;53.316;13.950;2022-09-17T10:33:23;17.98;;;3.63;;
11247;SDS011;5681;53.316;13.950;2022-09-17T10:35:56;17.92;;;3.90;;
11247;SDS011;5681;53.316;13.950;2022-09-17T10:38:27;22.77;;;3.97;;
11247;SDS011;5681;53.316;13.950;2022-09-17T10:43:41;20.13;;;3.70;;
11247;SDS011;5681;53.316;13.950;2022-09-17T10:46:10;15.38;;;3.92;;
11247;SDS011;5681;53.316;13.950;2022-09-17T10:48:40;18.13;;;3.55;;
11247;SDS011;5681;53.316;13.950;2022-09-17T10:51:09;16.40;;;3.50;;
11247;SDS011;5681;53.316;13.950;2022-09-17T10:53:39;18.50;;;3.67;;
11247;SDS011;5681;53.316;13.950;2022-09-17T10:56:33;18.30;;;3.95;;
11247;SDS011;5681;53.316;13.950;2022-09-17T10:59:03;16.35;;;3.50;;
11247;SDS011;5681;53.316;13.950;2022-09-17T11:01:46;13.48;;;3.03;;
11247;SDS011;5681;53.316;13.950;2022-09-17T11:04:19;12.77;;;3.58;;
11247;SDS011;5681;53.316;13.950;2022-09-17T11:06:49;13.98;;;3.13;;
11247;SDS011;5681;53.316;13.950;2022-09-17T11:09:51;16.42;;;2.95;;
11247;SDS011;5681;53.316;13.950;2022-09-17T11:12:31;13.18;;;2.90;;
11247;SDS011;5681;53.316;13.950;2022-09-17T11:15:05;12.95;;;3.20;;
11247;SDS011;5681;53.316;13.950;2022-09-17T11:17:44;13.48;;;3.83;;
11247;SDS011;5681;53.316;13.950;2022-09-17T11:20:32;11.27;;;2.97;;
11247;SDS011;5681;53.316;13.950;2022-09-17T11:23:14;10.73;;;3.05;;
11247;SDS011;5681;53.316;13.950;2022-09-17T11:25:49;15.73;;;3.67;;
11247;SDS011;5681;53.316;13.950;2022-09-17T11:28:22;11.52;;;2.80;;
11247;SDS011;5681;53.316;13.950;2022-09-17T11:31:00;11.88;;;3.20;;
11247;SDS011;5681;53.316;13.950;2022-09-17T11:33:38;10.13;;;2.78;;
11247;SDS011;5681;53.316;13.950;2022-09-17T11:36:10;17.30;;;3.63;;
11247;SDS011;5681;53.316;13.950;2022-09-17T11:38:39;13.63;;;3.33;;
11247;SDS011;5681;53.316;13.950;2022-09-17T11:41:09;16.85;;;3.15;;
11247;SDS011;5681;53.316;13.950;2022-09-17T11:43:38;14.38;;;3.10;;
11247;SDS011;5681;53.316;13.950;2022-09-17T11:46:08;10.93;;;2.80;;
11247;SDS011;5681;53.316;13.950;2022-09-17T11:48:41;13.90;;;3.58;;
11247;SDS011;5681;53.316;13.950;2022-09-17T11:51:14;12.32;;;2.92;;
11247;SDS011;5681;53.316;13.950;2022-09-17T11:53:48;14.63;;;3.15;;
11247;SDS011;5681;53.316;13.950;2022-09-17T11:56:16;14.88;;;3.00;;
11247;SDS011;5681;53.316;13.950;2022-09-17T11:58:47;17.30;;;3.35;;
11247;SDS011;5681;53.316;13.950;2022-09-17T12:01:16;18.55;;;3.28;;
11247;SDS011;5681;53.316;13.950;2022-09-17T12:03:48;14.18;;;2.97;;
11247;SDS011;5681;53.316;13.950;2022-09-17T12:06:20;13.90;;;3.13;;
11247;SDS011;5681;53.316;13.950;2022-09-17T12:08:52;11.48;;;2.88;;
11247;SDS011;5681;53.316;13.950;2022-09-17T12:11:22;9.98;;;3.28;;
11247;SDS011;5681;53.316;13.950;2022-09-17T12:13:53;13.35;;;3.10;;
11247;SDS011;5681;53.316;13.950;2022-09-17T12:16:23;15.40;;;3.20;;
11247;SDS011;5681;53.316;13.950;2022-09-17T12:18:58;16.60;;;3.42;;
11247;SDS011;5681;53.316;13.950;2022-09-17T12:21:28;10.30;;;2.80;;
11247;SDS011;5681;53.316;13.950;2022-09-17T12:23:58;12.07;;;3.08;;
11247;SDS011;5681;53.316;13.950;2022-09-17T12:26:33;9.73;;;2.90;;
11247;SDS011;5681;53.316;13.950;2022-09-17T12:29:13;14.60;;;3.30;;
11247;SDS011;5681;53.316;13.950;2022-09-17T12:31:49;9.82;;;2.83;;
11247;SDS011;5681;53.316;13.950;2022-09-17T12:34:24;12.70;;;2.90;;
11247;SDS011;5681;53.316;13.950;2022-09-17T12:36:54;16.10;;;2.88;;
11247;SDS011;5681;53.316;13.950;2022-09-17T12:39:39;13.00;;;3.22;;
11247;SDS011;5681;53.316;13.950;2022-09-17T12:42:21;13.88;;;3.30;;
11247;SDS011;5681;53.316;13.950;2022-09-17T12:44:58;15.38;;;3.10;;
11247;SDS011;5681;53.316;13.950;2022-09-17T12:47:41;14.32;;;3.10;;
11247;SDS011;5681;53.316;13.950;2022-09-17T12:50:18;13.27;;;3.33;;
11247;SDS011;5681;53.316;13.950;2022-09-17T12:52:53;11.65;;;2.70;;
11247;SDS011;5681;53.316;13.950;2022-09-17T12:55:32;11.13;;;2.88;;
11247;SDS011;5681;53.316;13.950;2022-09-17T12:58:04;11.98;;;3.15;;
11247;SDS011;5681;53.316;13.950;2022-09-17T13:00:35;12.13;;;3.00;;
11247;SDS011;5681;53.316;13.950;2022-09-17T13:03:05;12.48;;;3.08;;
11247;SDS011;5681;53.316;13.950;2022-09-17T13:08:41;10.82;;;2.80;;
11247;SDS011;5681;53.316;13.950;2022-09-17T13:11:20;14.55;;;2.72;;
11247;SDS011;5681;53.316;13.950;2022-09-17T13:13:55;14.02;;;2.80;;
11247;SDS011;5681;53.316;13.950;2022-09-17T13:16:24;11.60;;;2.80;;
11247;SDS011;5681;53.316;13.950;2022-09-17T13:18:57;11.35;;;2.50;;
11247;SDS011;5681;53.316;13.950;2022-09-17T13:21:30;13.63;;;2.90;;
11247;SDS011;5681;53.316;13.950;2022-09-17T13:23:58;13.00;;;2.60;;
11247;SDS011;5681;53.316;13.950;2022-09-17T13:26:32;11.27;;;2.38;;
11247;SDS011;5681;53.316;13.950;2022-09-17T13:28:59;8.07;;;1.92;;
11247;SDS011;5681;53.316;13.950;2022-09-17T13:34:25;10.40;;;2.63;;
11247;SDS011;5681;53.316;13.950;2022-09-17T13:36:55;8.88;;;2.40;;
11247;SDS011;5681;53.316;13.950;2022-09-17T13:39:32;12.10;;;2.33;;
11247;SDS011;5681;53.316;13.950;2022-09-17T13:42:01;7.00;;;1.88;;
11247;SDS011;5681;53.316;13.950;2022-09-17T13:44:32;11.68;;;2.40;;
11247;SDS011;5681;53.316;13.950;2022-09-17T13:47:07;7.68;;;2.10;;
11247;SDS011;5681;53.316;13.950;2022-09-17T13:49:35;9.25;;;2.40;;
11247;SDS011;5681;53.316;13.950;2022-09-17T13:52:10;6.00;;;1.80;;
11247;SDS011;5681;53.316;13.950;2022-09-17T13:54:37;9.82;;;2.25;;
11247;SDS011;5681;53.316;13.950;2022-09-17T13:57:04;8.48;;;2.63;;
11247;SDS011;5681;53.316;13.950;2022-09-17T13:59:36;9.75;;;2.85;;
11247;SDS011;5681;53.316;13.950;2022-09-17T14:05:24;9.52;;;2.95;;
11247;SDS011;5681;53.316;13.950;2022-09-17T14:08:14;8.18;;;2.42;;
11247;SDS011;5681;53.316;13.950;2022-09-17T14:10:52;11.23;;;3.33;;
11247;SDS011;5681;53.316;13.950;2022-09-17T14:13:23;11.00;;;2.58;;
11247;SDS011;5681;53.316;13.950;2022-09-17T14:15:55;14.45;;;2.83;;
11247;SDS011;5681;53.316;13.950;2022-09-17T14:18:33;9.15;;;3.15;;
11247;SDS011;5681;53.316;13.950;2022-09-17T14:21:11;9.73;;;2.72;;
11247;SDS011;5681;53.316;13.950;2022-09-17T14:23:42;9.68;;;3.40;;
11247;SDS011;5681;53.316;13.950;2022-09-17T14:26:11;10.63;;;3.50;;
11247;SDS011;5681;53.316;13.950;2022-09-17T14:28:43;15.38;;;3.47;;
11247;SDS011;5681;53.316;13.950;2022-09-17T14:31:15;9.82;;;3.47;;
11247;SDS011;5681;53.316;13.950;2022-09-17T14:33:43;14.10;;;3.88;;
11247;SDS011;5681;53.316;13.950;2022-09-17T14:36:10;9.57;;;3.15;;
11247;SDS011;5681;53.316;13.950;2022-09-17T14:38:42;9.63;;;3.08;;
11247;SDS011;5681;53.316;13.950;2022-09-17T14:41:15;8.68;;;2.65;;
11247;SDS011;5681;53.316;13.950;2022-09-17T14:43:46;7.63;;;2.20;;
11247;SDS011;5681;53.316;13.950;2022-09-17T14:46:18;9.48;;;2.60;;
11247;SDS011;5681;53.316;13.950;2022-09-17T14:48:45;9.32;;;2.42;;
11247;SDS011;5681;53.316;13.950;2022-09-17T14:51:22;8.43;;;2.35;;
11247;SDS011;5681;53.316;13.950;2022-09-17T14:56:50;8.77;;;2.40;;
11247;SDS011;5681;53.316;13.950;2022-09-17T14:59:22;8.13;;;2.30;;
11247;SDS011;5681;53.316;13.950;2022-09-17T15:01:52;7.05;;;2.20;;
11247;SDS011;5681;53.316;13.950;2022-09-17T15:04:19;9.63;;;2.70;;
11247;SDS011;5681;53.316;13.950;2022-09-17T15:06:47;10.98;;;2.88;;
11247;SDS011;5681;53.316;13.950;2022-09-17T15:09:14;9.15;;;2.25;;
11247;SDS011;5681;53.316;13.950;2022-09-17T15:11:41;11.55;;;4.13;;
11247;SDS011;5681;53.316;13.950;2022-09-17T15:14:12;9.55;;;3.60;;